createdAt,value
2018-12-24T00:03:50.694Z,100779.55
2018-12-24T00:09:13.090Z,100786.98
2018-12-24T00:14:29.867Z,100793.55
2018-12-24T00:19:52.678Z,100802.82
2018-12-24T00:25:08.305Z,100806.92
2018-12-24T00:30:31.299Z,100810.16
2018-12-24T00:35:34.937Z,100827.86
2018-12-24T00:40:57.782Z,100845.80
2018-12-24T00:46:12.995Z,100854.05
2018-12-24T00:51:28.315Z,100866.27
2018-12-24T00:56:51.257Z,100867.27
2018-12-24T01:02:06.596Z,100870.94
2018-12-24T01:07:29.501Z,100872.45
2018-12-24T01:12:45.406Z,100882.27
2018-12-24T01:18:08.348Z,100882.57
2018-12-24T01:23:24.011Z,100906.92
2018-12-24T01:28:47.171Z,100914.16
2018-12-24T01:34:02.389Z,100916.34
2018-12-24T01:39:24.967Z,100925.37
2018-12-24T01:44:40.818Z,100932.85
2018-12-24T01:50:03.404Z,100937.27
2018-12-24T01:55:06.362Z,100938.56
2018-12-24T02:00:28.781Z,100927.88
2018-12-24T02:05:44.765Z,100937.55
2018-12-24T02:11:07.404Z,100949.20
2018-12-24T02:16:22.567Z,100954.50
2018-12-24T02:21:38.164Z,100952.55
2018-12-24T02:27:01.247Z,100964.65
2018-12-24T02:32:16.747Z,100974.12
2018-12-24T02:37:39.319Z,100992.17
2018-12-24T02:42:55.221Z,100996.71
2018-12-24T02:48:17.636Z,101015.17
2018-12-24T02:53:33.665Z,101020.45
2018-12-24T02:58:49.770Z,101033.97
2018-12-24T03:04:05.916Z,101044.89
2018-12-24T03:09:22.397Z,101048.02
2018-12-24T03:14:38.166Z,101058.52
2018-12-24T03:20:00.496Z,101054.20
2018-12-24T03:25:15.952Z,101077.58
2018-12-24T03:30:38.618Z,101081.13
2018-12-24T03:35:57.536Z,101096.08
2018-12-24T03:41:22.912Z,101109.81
2018-12-24T03:46:38.224Z,101125.29
2018-12-24T03:52:00.864Z,101124.65
2018-12-24T03:57:16.882Z,101132.02
2018-12-24T04:02:39.807Z,101146.00
2018-12-24T04:07:55.977Z,101153.00
2018-12-24T04:13:22.685Z,101181.03
2018-12-24T04:18:57.234Z,101182.63
2018-12-24T04:24:19.690Z,101208.59
2018-12-24T04:29:35.085Z,101228.69
2018-12-24T04:34:58.318Z,101250.27
2018-12-24T04:40:14.555Z,101260.05
2018-12-24T04:45:37.660Z,101272.02
2018-12-24T04:50:56.027Z,101281.98
2018-12-24T04:56:12.192Z,101301.83
2018-12-24T05:01:28.521Z,101327.52
2018-12-24T05:06:51.032Z,101340.88
2018-12-24T05:12:06.600Z,101351.95
2018-12-24T05:17:29.332Z,101368.35
2018-12-24T05:22:45.172Z,101394.61
2018-12-24T05:28:07.837Z,101400.26
2018-12-24T05:33:24.350Z,101410.91
2018-12-24T05:38:47.326Z,101428.91
2018-12-24T05:44:03.005Z,101427.45
2018-12-24T05:49:26.243Z,101459.08
2018-12-24T05:54:41.416Z,101460.92
2018-12-24T05:59:57.262Z,101476.90
2018-12-24T06:05:12.665Z,101499.14
2018-12-24T06:10:35.583Z,101517.49
2018-12-24T06:15:51.168Z,101531.52
2018-12-24T06:21:13.490Z,101539.23
2018-12-24T06:26:28.903Z,101564.04
2018-12-24T06:31:51.284Z,101580.77
2018-12-24T06:37:06.872Z,101595.45
2018-12-24T06:42:29.795Z,101614.17
2018-12-24T06:47:46.221Z,101624.77
2018-12-24T06:53:09.389Z,101627.53
2018-12-24T06:58:24.513Z,101657.62
2018-12-24T07:03:47.166Z,101676.55
2018-12-24T07:09:04.466Z,101691.98
2018-12-24T07:14:27.833Z,101713.01
2018-12-24T07:19:43.437Z,101725.59
2018-12-24T07:25:05.801Z,101740.32
2018-12-24T07:30:21.610Z,101754.03
2018-12-24T07:35:44.094Z,101765.59
2018-12-24T07:40:59.805Z,101780.52
2018-12-24T07:46:22.237Z,101792.17
2018-12-24T07:51:38.561Z,101811.88
2018-12-24T07:56:54.947Z,101827.81
2018-12-24T08:02:11.150Z,101842.48
2018-12-24T08:07:14.667Z,101856.02
2018-12-24T08:12:30.288Z,101884.72
2018-12-24T08:17:53.167Z,101904.47
2018-12-24T08:23:09.265Z,101917.34
2018-12-24T08:28:31.927Z,101935.31
2018-12-24T08:33:48.418Z,101921.78
2018-12-24T08:39:11.402Z,101932.97
2018-12-24T08:44:26.904Z,101961.66
2018-12-24T08:50:07.270Z,101972.59
2018-12-24T08:55:09.726Z,101976.02
2018-12-24T09:00:12.106Z,101975.75
2018-12-24T09:05:14.431Z,101993.78
2018-12-24T09:10:16.785Z,102000.64
2018-12-24T09:15:19.014Z,102010.39
2018-12-24T09:20:21.264Z,102002.25
2018-12-24T09:25:23.741Z,102019.77
2018-12-24T09:30:27.338Z,102031.27
2018-12-24T09:35:30.133Z,102053.12
2018-12-24T09:40:32.352Z,102065.92
2018-12-24T09:45:35.360Z,102073.21
2018-12-24T09:50:37.553Z,102074.02
2018-12-24T09:55:40.285Z,102073.97
2018-12-24T10:00:42.600Z,102077.77
2018-12-24T10:05:45.550Z,102093.63
2018-12-24T10:10:47.776Z,102095.30
2018-12-24T10:15:51.022Z,102091.43
2018-12-24T10:20:53.655Z,102094.00
2018-12-24T10:25:55.866Z,102103.85
2018-12-24T10:30:58.733Z,102108.14
2018-12-24T10:36:01.418Z,102118.43
2018-12-24T10:41:15.017Z,102118.86
2018-12-24T10:46:17.545Z,102115.91
2018-12-24T10:51:20.350Z,102131.37
2018-12-24T10:56:22.563Z,102134.81
2018-12-24T11:01:25.268Z,102144.66
2018-12-24T11:06:28.387Z,102145.48
2018-12-24T11:11:32.158Z,102153.27
2018-12-24T11:16:34.388Z,102162.27
2018-12-24T11:21:36.646Z,102181.12
2018-12-24T11:26:39.478Z,102176.02
2018-12-24T11:31:41.638Z,102169.17
2018-12-24T11:36:44.067Z,102166.17
2018-12-24T11:41:46.346Z,102161.47
2018-12-24T11:46:48.916Z,102157.60
2018-12-24T11:51:52.037Z,102160.09
2018-12-24T11:56:54.580Z,102157.94
2018-12-24T12:01:57.549Z,102161.80
2018-12-24T12:07:00.039Z,102175.09
2018-12-24T12:12:03.173Z,102178.94
2018-12-24T12:17:05.580Z,102186.61
2018-12-24T12:22:07.943Z,102190.47
2018-12-24T12:27:10.378Z,102201.65
2018-12-24T12:32:12.620Z,102203.75
2018-12-24T12:37:15.099Z,102198.17
2018-12-24T12:42:17.723Z,102207.09
2018-12-24T12:47:33.263Z,102204.91
2018-12-24T12:52:49.260Z,102210.95
2018-12-24T12:58:11.581Z,102217.81
2018-12-24T13:03:15.306Z,102239.23
2018-12-24T13:08:37.622Z,102255.52
2018-12-24T13:13:52.939Z,102264.91
2018-12-24T13:19:15.812Z,102264.48
2018-12-24T13:24:31.301Z,102276.09
2018-12-24T13:29:53.991Z,102279.48
2018-12-24T13:35:09.758Z,102282.95
2018-12-24T13:40:32.445Z,102291.92
2018-12-24T13:45:51.184Z,102290.23
2018-12-24T13:51:13.796Z,102301.77
2018-12-24T13:56:29.668Z,102312.88
2018-12-24T14:01:52.507Z,102318.48
2018-12-24T14:07:08.019Z,102333.45
2018-12-24T14:12:30.470Z,102332.17
2018-12-24T14:17:46.792Z,102340.28
2018-12-24T14:23:09.199Z,102334.73
2018-12-24T14:28:25.322Z,102343.75
2018-12-24T14:33:47.728Z,102345.03
2018-12-24T14:38:50.818Z,102351.45
2018-12-24T14:43:53.078Z,102360.00
2018-12-24T14:49:08.798Z,102360.89
2018-12-24T14:54:24.133Z,102363.50
2018-12-24T14:59:26.459Z,102381.03
2018-12-24T15:04:50.018Z,102401.18
2018-12-24T15:10:12.976Z,102410.61
2018-12-24T15:15:35.211Z,102419.22
2018-12-24T15:20:50.605Z,102428.19
2018-12-24T15:26:12.585Z,102428.19
2018-12-24T15:31:27.947Z,102417.05
2018-12-24T15:36:50.423Z,102429.53
2018-12-24T15:42:05.586Z,102430.84
2018-12-24T15:47:27.560Z,102434.72
2018-12-24T15:52:43.421Z,102427.87
2018-12-24T15:58:05.786Z,102416.34
2018-12-24T16:03:20.813Z,102420.58
2018-12-24T16:08:43.193Z,102412.02
2018-12-24T16:13:58.936Z,102412.47
2018-12-24T16:19:21.131Z,102412.02
2018-12-24T16:24:36.720Z,102425.77
2018-12-24T16:29:58.858Z,102403.09
2018-12-24T16:35:14.371Z,102426.68
2018-12-24T16:40:36.409Z,102424.94
2018-12-24T16:45:51.786Z,102427.09
2018-12-24T16:51:14.585Z,102427.95
2018-12-24T16:56:30.628Z,102427.99
2018-12-24T17:01:53.359Z,102454.09
2018-12-24T17:07:09.219Z,102472.09
2018-12-24T17:12:31.436Z,102474.66
2018-12-24T17:17:46.903Z,102463.95
2018-12-24T17:23:09.090Z,102454.95
2018-12-24T17:28:43.871Z,102468.64
2018-12-24T17:34:06.470Z,102462.64
2018-12-24T17:39:22.310Z,102461.38
2018-12-24T17:44:44.808Z,102472.95
2018-12-24T17:50:00.353Z,102459.24
2018-12-24T17:55:23.300Z,102449.81
2018-12-24T18:00:39.205Z,102448.13
2018-12-24T18:06:01.696Z,102454.14
2018-12-24T18:11:17.167Z,102444.31
2018-12-24T18:16:39.245Z,102444.33
2018-12-24T18:21:54.431Z,102441.77
2018-12-24T18:27:16.353Z,102433.25
2018-12-24T18:32:31.979Z,102435.81
2018-12-24T18:37:54.129Z,102435.34
2018-12-24T18:43:09.806Z,102434.47
2018-12-24T18:48:32.258Z,102431.05
2018-12-24T18:53:47.785Z,102425.48
2018-12-24T18:59:10.622Z,102423.75
2018-12-24T19:04:26.157Z,102410.06
2018-12-24T19:09:48.065Z,102416.45
2018-12-24T19:15:04.186Z,102429.30
2018-12-24T19:20:20.059Z,102442.57
2018-12-24T19:25:34.946Z,102454.11
2018-12-24T19:30:56.892Z,102457.97
2018-12-24T19:36:12.627Z,102450.73
2018-12-24T19:41:34.978Z,102479.83
2018-12-24T19:46:50.291Z,102499.50
2018-12-24T19:52:12.445Z,102502.51
2018-12-24T19:57:14.660Z,102496.52
2018-12-24T20:02:30.804Z,102488.80
2018-12-24T20:07:47.001Z,102475.50
2018-12-24T20:13:09.414Z,102486.20
2018-12-24T20:18:24.962Z,102497.80
2018-12-24T20:23:47.684Z,102496.47
2018-12-24T20:29:03.016Z,102492.64
2018-12-24T20:34:25.195Z,102504.62
2018-12-24T20:39:43.689Z,102496.88
2018-12-24T20:45:05.984Z,102503.31
2018-12-24T20:50:22.898Z,102488.75
2018-12-24T20:55:45.047Z,102482.70
2018-12-24T21:01:00.298Z,102489.53
2018-12-24T21:06:15.838Z,102483.11
2018-12-24T21:11:34.754Z,102468.52
